Time;durP1;ratioP1;P1;durP2;ratioP2;P2;SDS_P1;SDS_P2;PMS_P1;PMS_P2;Temp;Humidity;BMP_temperature;BMP_pressure;BME280_temperature;BME280_humidity;BME280_pressure;Samples;Min_cycle;Max_cycle;Signal;HPM_P1;HPM_P2
2022/03/21 00:00:50;;;;;;;2.17;2.07;;;6.30;45.30;5.60;99589.00;;;;5116132;28;20278;-70
2022/03/21 00:03:21;;;;;;;2.40;2.20;;;6.30;45.20;5.50;99573.00;;;;5116252;28;20202;-70
2022/03/21 00:05:48;;;;;;;2.40;1.20;;;6.30;45.40;5.60;99581.00;;;;5116134;28;20274;-71
2022/03/21 00:08:17;;;;;;;1.87;1.77;;;6.20;45.40;5.50;99575.00;;;;5116218;28;20199;-71
2022/03/21 00:10:45;;;;;;;2.07;1.97;;;6.20;45.20;5.30;99587.00;;;;5116180;28;20266;-71
2022/03/21 00:13:15;;;;;;;1.50;1.40;;;6.10;45.50;5.20;99598.00;;;;5116094;28;20191;-71
2022/03/21 00:15:43;;;;;;;1.83;1.57;;;6.00;46.70;5.20;99594.00;;;;5116131;28;20195;-70
2022/03/21 00:18:13;;;;;;;2.07;1.97;;;6.00;47.20;5.30;99590.00;;;;5115935;28;20215;-70
2022/03/21 00:20:47;;;;;;;3.50;2.17;;;6.00;47.30;5.10;99594.00;;;;5115914;28;20194;-70
2022/03/21 00:23:15;;;;;;;3.13;2.13;;;5.90;47.50;5.10;99609.00;;;;5115815;28;20217;-70
2022/03/21 00:25:43;;;;;;;1.00;1.00;;;5.90;48.10;5.00;99606.00;;;;5097704;28;20209;-70
2022/03/21 00:28:11;;;;;;;3.23;3.03;;;5.80;48.60;5.00;99604.00;;;;5115697;28;20680;-71
2022/03/21 00:30:46;;;;;;;1.63;1.53;;;5.80;48.90;4.90;99588.00;;;;5115588;28;20222;-71
2022/03/21 00:33:13;;;;;;;2.57;2.37;;;5.70;48.90;5.00;99594.00;;;;5115754;28;20573;-70
2022/03/21 00:35:42;;;;;;;4.43;2.07;;;5.70;49.70;5.00;99594.00;;;;5115648;28;20324;-71
2022/03/21 00:38:15;;;;;;;2.43;2.33;;;5.70;49.90;4.90;99589.00;;;;5115494;28;20210;-71
2022/03/21 00:40:45;;;;;;;2.23;2.07;;;5.60;49.70;4.90;99587.00;;;;5115668;28;20182;-70
2022/03/21 00:43:14;;;;;;;1.37;1.37;;;5.60;49.80;4.80;99585.00;;;;5097607;28;20209;-70
2022/03/21 00:45:46;;;;;;;1.90;1.80;;;5.60;49.70;4.80;99595.00;;;;5096820;28;20608;-70
2022/03/21 00:48:13;;;;;;;2.40;2.03;;;5.50;50.50;4.80;99583.00;;;;5115368;28;20190;-71
2022/03/21 00:50:39;;;;;;;1.93;1.77;;;5.50;49.70;4.70;99578.00;;;;5097609;28;20225;-70
2022/03/21 00:53:08;;;;;;;2.37;1.80;;;5.50;49.20;4.60;99584.00;;;;5115361;28;20268;-70
2022/03/21 00:55:35;;;;;;;3.23;2.00;;;5.40;49.30;4.70;99591.00;;;;5115204;28;20194;-70
2022/03/21 00:58:02;;;;;;;2.60;2.37;;;5.40;49.00;4.80;99590.00;;;;5115213;28;20273;-71
2022/03/21 01:00:31;;;;;;;1.73;1.63;;;5.50;48.60;4.80;99584.00;;;;5115146;28;20190;-70
2022/03/21 01:03:00;;;;;;;2.70;2.50;;;5.40;49.30;4.40;99583.00;;;;5115088;28;20202;-70
2022/03/21 01:05:27;;;;;;;4.20;1.77;;;5.30;49.80;4.40;99584.00;;;;5115324;28;20276;-70
2022/03/21 01:07:55;;;;;;;3.20;2.97;;;5.20;49.50;4.40;99584.00;;;;5115090;28;20238;-71
2022/03/21 01:10:27;;;;;;;2.30;2.00;;;5.20;49.90;4.40;99594.00;;;;5114934;28;20190;-69
2022/03/21 01:12:54;;;;;;;4.77;2.80;;;5.20;49.60;4.20;99591.00;;;;5114986;28;20249;-70
2022/03/21 01:15:26;;;;;;;7.10;2.80;;;5.10;50.50;4.30;99587.00;;;;5114995;28;20513;-70
2022/03/21 01:17:57;;;;;;;2.40;2.20;;;5.10;51.00;4.20;99600.00;;;;5114897;28;20190;-70
2022/03/21 01:20:25;;;;;;;3.67;2.90;;;5.10;51.70;4.10;99594.00;;;;5115169;28;20244;-70
2022/03/21 01:22:52;;;;;;;2.90;2.70;;;4.90;52.70;4.10;99601.00;;;;5115103;28;20205;-70
2022/03/21 01:25:21;;;;;;;2.47;1.93;;;4.90;53.00;4.10;99590.00;;;;5114821;28;20286;-70
2022/03/21 01:27:50;;;;;;;5.83;2.63;;;4.90;53.60;4.20;99594.00;;;;5114834;28;20185;-70
2022/03/21 01:30:18;;;;;;;1.93;1.83;;;5.00;53.40;4.20;99597.00;;;;5114998;28;20233;-70
2022/03/21 01:32:45;;;;;;;1.53;1.50;;;4.90;53.70;4.10;99607.00;;;;5114775;28;20190;-70
2022/03/21 01:35:15;;;;;;;2.57;2.37;;;4.90;53.60;4.00;99607.00;;;;5114894;28;20694;-71
2022/03/21 01:37:43;;;;;;;1.90;1.80;;;4.90;54.00;4.00;99619.00;;;;5116113;28;20227;-70
2022/03/21 01:40:11;;;;;;;1.40;1.37;;;4.80;53.00;4.10;99600.00;;;;5116678;28;20285;-70
2022/03/21 01:42:43;;;;;;;3.27;2.97;;;4.80;53.30;4.10;99607.00;;;;5120880;28;20194;-71
2022/03/21 01:45:11;;;;;;;1.00;1.00;;;4.80;54.00;4.20;99580.00;;;;5101766;28;20194;-71
2022/03/21 01:47:38;;;;;;;2.37;2.27;;;5.10;53.80;3.80;99586.00;;;;5117081;28;20225;-71
2022/03/21 01:50:07;;;;;;;4.80;2.73;;;4.80;54.70;4.00;99587.00;;;;5115620;28;20205;-70
2022/03/21 01:52:36;;;;;;;1.83;1.73;;;4.80;55.00;4.00;99612.00;;;;5114742;28;20241;-69
2022/03/21 01:57:56;;;;;;;1.57;1.30;;;4.80;54.80;4.10;99621.00;;;;5118412;28;20286;-70
2022/03/21 02:00:22;;;;;;;2.20;1.93;;;4.80;54.50;4.00;99607.00;;;;5114935;28;20202;-70
2022/03/21 02:02:49;;;;;;;1.97;1.87;;;4.80;54.60;4.10;99608.00;;;;5114691;28;20206;-70
2022/03/21 02:05:16;;;;;;;1.77;1.67;;;4.80;54.80;4.00;99610.00;;;;5114303;28;20210;-70
2022/03/21 02:07:45;;;;;;;3.13;2.93;;;4.70;54.00;3.90;99576.00;;;;5114117;28;20217;-70
2022/03/21 02:10:11;;;;;;;4.83;3.20;;;4.70;54.10;4.00;99609.00;;;;5113965;28;20239;-70
2022/03/21 02:12:38;;;;;;;3.03;2.43;;;4.70;54.10;3.90;99620.00;;;;5114105;28;20218;-70
2022/03/21 02:15:06;;;;;;;3.00;2.80;;;4.70;54.20;3.90;99614.00;;;;5114700;28;20217;-70
2022/03/21 02:17:38;;;;;;;4.70;2.47;;;4.60;54.10;3.80;99625.00;;;;5114019;28;20685;-70
2022/03/21 02:20:07;;;;;;;1.57;1.47;;;4.60;53.70;3.80;99608.00;;;;5114136;28;20216;-70
2022/03/21 02:22:48;;;;;;;2.93;2.60;;;4.50;53.50;3.80;99615.00;;;;5114030;28;20202;-70
2022/03/21 02:25:31;;;;;;;2.53;2.33;;;4.50;53.40;3.70;99616.00;;;;5114238;28;20712;-70
2022/03/21 02:28:01;;;;;;;1.87;1.77;;;4.50;53.70;3.60;99623.00;;;;5096092;28;20254;-70
2022/03/21 02:30:30;;;;;;;2.57;2.37;;;4.50;53.70;3.60;99622.00;;;;5113820;28;20198;-71
2022/03/21 02:32:57;;;;;;;2.83;1.73;;;4.40;53.70;3.60;99612.00;;;;5113653;28;20232;-70
2022/03/21 02:35:26;;;;;;;2.33;2.23;;;4.30;54.50;3.60;99589.00;;;;5114010;28;20195;-70
2022/03/21 02:37:55;;;;;;;2.60;1.33;;;4.40;55.00;3.50;99600.00;;;;5113690;28;20224;-70
2022/03/21 02:40:23;;;;;;;19.57;2.87;;;4.30;55.90;3.70;99619.00;;;;5113804;28;20644;-71
2022/03/21 02:42:50;;;;;;;1.17;1.17;;;4.40;56.40;3.60;99618.00;;;;5114088;28;20282;-71
2022/03/21 02:45:17;;;;;;;1.93;1.83;;;4.40;55.80;3.40;99621.00;;;;5113701;28;20200;-72
2022/03/21 02:47:45;;;;;;;2.50;2.30;;;4.20;56.10;3.30;99616.00;;;;5113775;28;20194;-70
2022/03/21 02:50:16;;;;;;;2.10;1.67;;;4.20;56.80;3.40;99624.00;;;;5113562;28;20556;-71
2022/03/21 02:52:46;;;;;;;1.77;1.67;;;4.20;57.30;3.40;99625.00;;;;5113763;28;20402;-71
2022/03/21 02:55:12;;;;;;;1.83;1.73;;;4.20;58.10;3.40;99623.00;;;;5113741;28;20230;-72
2022/03/21 02:57:40;;;;;;;2.17;2.07;;;4.20;57.20;3.40;99633.00;;;;5113639;28;20202;-70
2022/03/21 03:00:08;;;;;;;0.90;0.90;;;4.20;56.60;3.40;99623.00;;;;5113522;28;20213;-70
2022/03/21 03:02:35;;;;;;;1.73;1.63;;;4.10;56.30;3.40;99617.00;;;;5113535;28;20254;-71
2022/03/21 03:05:01;;;;;;;1.57;1.47;;;4.20;56.10;3.30;99631.00;;;;5113472;28;20233;-70
2022/03/21 03:07:28;;;;;;;2.27;2.13;;;4.10;56.70;3.50;99619.00;;;;5114648;28;20659;-70
2022/03/21 03:09:57;;;;;;;5.23;2.87;;;4.20;56.40;3.20;99623.00;;;;5117148;28;20201;-70
2022/03/21 03:12:23;;;;;;;5.33;2.47;;;4.10;56.10;3.20;99612.00;;;;5098945;28;20221;-70
2022/03/21 03:14:50;;;;;;;1.83;1.53;;;4.10;56.80;3.20;99611.00;;;;5116992;28;20224;-70
2022/03/21 03:17:17;;;;;;;4.47;2.63;;;4.00;56.30;3.40;99613.00;;;;5116768;28;20245;-71
2022/03/21 03:19:44;;;;;;;1.30;1.30;;;4.00;57.30;3.20;99617.00;;;;5116885;28;20205;-71
2022/03/21 03:22:16;;;;;;;2.00;1.87;;;4.00;56.40;3.20;99612.00;;;;5116846;28;20225;-71
2022/03/21 03:24:44;;;;;;;2.53;2.43;;;4.00;57.00;3.20;99615.00;;;;5116722;28;20217;-70
2022/03/21 03:27:13;;;;;;;1.83;1.73;;;3.90;56.60;2.80;99609.00;;;;5116611;28;20189;-70
2022/03/21 03:29:40;;;;;;;3.27;2.60;;;3.80;56.00;3.00;99607.00;;;;5116656;28;20201;-70
2022/03/21 03:32:08;;;;;;;1.97;1.87;;;3.70;56.70;2.90;99611.00;;;;5116423;28;20218;-70
2022/03/21 03:34:35;;;;;;;1.37;1.37;;;3.70;57.20;3.00;99613.00;;;;5116554;28;20202;-70
2022/03/21 03:37:03;;;;;;;5.40;2.97;;;3.70;57.50;2.70;99623.00;;;;5116602;28;20526;-71
2022/03/21 03:39:32;;;;;;;3.07;2.30;;;3.60;56.80;2.60;99610.00;;;;5098560;28;20233;-70
2022/03/21 03:41:58;;;;;;;2.97;1.93;;;3.50;57.70;2.60;99616.00;;;;5116670;28;20243;-70
2022/03/21 03:44:26;;;;;;;2.10;2.00;;;3.50;57.70;2.70;99621.00;;;;5116368;28;20312;-70
2022/03/21 03:46:53;;;;;;;2.37;2.03;;;3.60;57.20;2.80;99614.00;;;;5116429;28;20251;-70
2022/03/21 03:49:25;;;;;;;3.23;2.93;;;3.60;56.80;2.80;99617.00;;;;5116441;28;20550;-70
2022/03/21 03:51:51;;;;;;;1.17;1.10;;;3.60;57.10;2.70;99614.00;;;;5116401;28;20243;-70
2022/03/21 03:54:18;;;;;;;2.23;2.03;;;3.70;57.30;2.80;99622.00;;;;5116400;28;20262;-70
2022/03/21 03:56:47;;;;;;;2.27;2.03;;;3.60;58.00;2.90;99626.00;;;;5116088;28;20230;-70
2022/03/21 03:59:14;;;;;;;3.20;2.40;;;3.60;57.20;2.70;99627.00;;;;5116428;28;20258;-70
2022/03/21 04:01:41;;;;;;;1.80;1.57;;;3.60;57.70;2.80;99631.00;;;;5116022;28;20217;-71
2022/03/21 04:04:08;;;;;;;2.00;1.90;;;3.50;58.50;2.80;99624.00;;;;5115741;28;20296;-70
2022/03/21 04:06:35;;;;;;;2.93;2.57;;;3.50;58.70;2.70;99628.00;;;;5116033;28;20693;-70
2022/03/21 04:09:01;;;;;;;2.63;2.43;;;3.50;59.60;2.80;99626.00;;;;5098085;28;20220;-70
2022/03/21 04:11:28;;;;;;;3.10;2.07;;;3.50;58.90;2.90;99636.00;;;;5116142;28;20225;-71
2022/03/21 04:13:54;;;;;;;1.83;1.73;;;3.60;58.70;2.80;99625.00;;;;5115923;28;20233;-70
2022/03/21 04:16:21;;;;;;;2.30;2.00;;;3.50;58.70;2.70;99637.00;;;;5115845;28;20271;-72
2022/03/21 04:18:50;;;;;;;1.47;1.37;;;3.50;58.90;2.60;99635.00;;;;5096885;28;20228;-70
2022/03/21 04:21:16;;;;;;;2.33;2.23;;;3.40;58.70;2.50;99631.00;;;;5115942;28;20812;-70
2022/03/21 04:23:43;;;;;;;1.70;1.60;;;3.40;58.90;2.60;99631.00;;;;5115659;28;20251;-71
2022/03/21 04:26:12;;;;;;;12.07;2.80;;;3.40;59.30;2.50;99624.00;;;;5115881;28;20201;-70
2022/03/21 04:28:38;;;;;;;2.87;2.57;;;3.40;59.30;2.60;99632.00;;;;5116014;28;20211;-72
2022/03/21 04:31:07;;;;;;;2.63;2.47;;;3.40;59.50;2.50;99631.00;;;;5115585;28;20645;-70
2022/03/21 04:33:33;;;;;;;1.97;1.77;;;3.40;58.60;2.60;99630.00;;;;5115653;28;20206;-70
2022/03/21 04:36:00;;;;;;;2.83;2.13;;;3.30;58.90;2.50;99639.00;;;;5097643;28;20606;-70
2022/03/21 04:38:26;;;;;;;4.47;2.80;;;3.30;58.40;2.70;99642.00;;;;5115542;28;20249;-70
2022/03/21 04:40:53;;;;;;;2.10;1.93;;;3.40;58.50;2.70;99649.00;;;;5115312;28;20308;-70
2022/03/21 04:43:20;;;;;;;2.17;1.97;;;3.40;58.10;2.50;99650.00;;;;5115398;28;20690;-70
2022/03/21 04:45:49;;;;;;;3.97;3.47;;;3.40;57.80;2.50;99645.00;;;;5115393;28;20221;-70
2022/03/21 04:48:16;;;;;;;1.03;1.03;;;3.40;57.90;2.60;99662.00;;;;5115439;28;20194;-70
2022/03/21 04:50:43;;;;;;;3.03;1.67;;;3.30;58.00;2.60;99648.00;;;;5115287;28;20231;-70
2022/03/21 04:53:12;;;;;;;1.13;1.13;;;3.30;58.20;2.50;99648.00;;;;5097283;28;20228;-70
2022/03/21 04:55:40;;;;;;;0.93;0.93;;;3.30;58.80;2.60;99671.00;;;;5115366;28;20280;-70
2022/03/21 04:58:07;;;;;;;1.50;1.43;;;3.40;59.30;2.50;99666.00;;;;5115262;28;20668;-70
2022/03/21 05:00:34;;;;;;;2.70;2.60;;;3.30;59.20;2.50;99662.00;;;;5115260;28;20288;-70
2022/03/21 05:03:07;;;;;;;1.80;1.70;;;3.30;59.40;2.60;99657.00;;;;5115162;28;20250;-70
2022/03/21 05:05:35;;;;;;;1.87;1.77;;;3.40;59.50;2.40;99630.00;;;;5116056;28;20203;-70
2022/03/21 05:08:02;;;;;;;2.43;2.33;;;3.30;59.40;2.40;99669.00;;;;5115131;28;20197;-71
2022/03/21 05:10:30;;;;;;;2.27;2.13;;;3.20;60.00;2.50;99661.00;;;;5115265;28;20264;-70
2022/03/21 05:12:59;;;;;;;1.53;1.50;;;3.30;60.50;2.50;99666.00;;;;5115263;28;20330;-70
2022/03/21 05:15:29;;;;;;;1.27;1.23;;;3.30;60.20;2.60;99660.00;;;;5115246;28;20660;-70
2022/03/21 05:17:57;;;;;;;2.37;2.17;;;3.30;60.20;2.50;99668.00;;;;5115875;28;20200;-71
2022/03/21 05:20:25;;;;;;;1.97;1.87;;;3.30;59.80;2.50;99673.00;;;;5117258;28;20267;-70
2022/03/21 05:31:04;;;;;;;1.97;1.70;;;3.30;60.70;2.40;99674.00;;;;5115839;28;20515;-70
2022/03/21 05:36:17;;;;;;;1.47;1.40;;;3.20;60.50;2.40;99674.00;;;;5115037;28;20220;-70
2022/03/21 05:38:45;;;;;;;2.07;1.87;;;3.20;60.10;2.40;99666.00;;;;5114715;28;20194;-70
2022/03/21 05:41:12;;;;;;;2.33;2.17;;;3.20;60.40;2.40;99677.00;;;;5114513;28;20520;-71
2022/03/21 05:43:39;;;;;;;2.80;2.23;;;3.20;60.50;2.50;99674.00;;;;5114400;28;20225;-70
2022/03/21 05:46:06;;;;;;;2.50;1.63;;;3.20;60.60;2.40;99671.00;;;;5114341;28;20272;-70
2022/03/21 05:48:58;;;;;;;2.50;2.30;;;3.20;60.40;2.30;99676.00;;;;5114406;28;20237;-70
2022/03/21 05:51:30;;;;;;;1.40;1.30;;;3.20;60.30;2.30;99684.00;;;;5114540;28;20511;-70
2022/03/21 05:53:59;;;;;;;1.67;1.53;;;3.20;60.20;2.50;99685.00;;;;5114338;28;20228;-70
2022/03/21 05:56:27;;;;;;;2.77;2.57;;;3.20;60.50;2.60;99692.00;;;;5114324;28;20196;-70
2022/03/21 05:58:55;;;;;;;2.40;2.20;;;3.30;60.60;2.50;99692.00;;;;5114233;28;20330;-70
2022/03/21 06:01:23;;;;;;;2.23;2.03;;;3.30;60.10;2.50;99660.00;;;;5114232;28;20220;-70
2022/03/21 06:03:54;;;;;;;2.00;1.90;;;3.30;60.30;2.50;99699.00;;;;5096043;28;20632;-70
2022/03/21 06:06:22;;;;;;;1.90;1.80;;;3.20;60.00;2.50;99698.00;;;;5114026;28;20214;-70
2022/03/21 06:08:49;;;;;;;2.33;2.03;;;3.30;60.00;2.60;99711.00;;;;5113974;28;20232;-70
2022/03/21 06:11:16;;;;;;;1.73;1.63;;;3.30;59.90;2.80;99708.00;;;;5113643;28;20234;-70
2022/03/21 06:13:45;;;;;;;2.00;1.90;;;3.50;59.80;2.70;99713.00;;;;5114110;28;20198;-70
2022/03/21 06:16:12;;;;;;;1.60;1.57;;;3.50;59.40;2.80;99710.00;;;;5096115;28;20239;-70
2022/03/21 06:18:40;;;;;;;2.47;2.23;;;3.50;59.60;2.70;99705.00;;;;5113820;28;20213;-71
2022/03/21 06:21:09;;;;;;;1.87;1.77;;;3.50;59.40;2.90;99709.00;;;;5095744;28;20341;-70
2022/03/21 06:23:37;;;;;;;3.07;1.97;;;3.60;59.50;2.80;99722.00;;;;5095880;28;20602;-70
2022/03/21 06:26:04;;;;;;;1.90;1.73;;;3.60;59.80;2.80;99722.00;;;;5113663;28;20879;-70
2022/03/21 06:28:31;;;;;;;2.17;1.47;;;3.50;60.10;3.00;99718.00;;;;5113800;28;20311;-70
2022/03/21 06:30:59;;;;;;;2.33;2.13;;;3.70;59.80;3.00;99711.00;;;;5113977;28;20224;-72
2022/03/21 06:33:28;;;;;;;7.23;4.93;;;3.70;59.40;2.90;99728.00;;;;5113639;28;20240;-71
2022/03/21 06:35:57;;;;;;;2.20;2.00;;;3.70;58.80;3.10;99729.00;;;;5113832;28;20198;-70
2022/03/21 06:38:26;;;;;;;7.53;4.47;;;3.80;58.80;3.00;99723.00;;;;5113322;28;20324;-70
2022/03/21 06:40:55;;;;;;;6.70;4.53;;;3.80;59.30;3.00;99720.00;;;;5113907;28;20213;-70
2022/03/21 06:43:26;;;;;;;6.03;3.63;;;3.80;58.80;2.90;99725.00;;;;5116557;28;20193;-70
2022/03/21 06:45:54;;;;;;;2.83;2.63;;;3.80;59.10;2.80;99729.00;;;;5117252;28;20198;-70
2022/03/21 06:48:22;;;;;;;3.10;2.87;;;3.70;58.90;3.00;99722.00;;;;5117185;28;20201;-70
2022/03/21 06:50:50;;;;;;;6.77;3.20;;;3.70;58.80;2.70;99725.00;;;;5117021;28;20214;-70
2022/03/21 06:53:19;;;;;;;2.87;2.50;;;3.70;58.40;2.90;99735.00;;;;5099299;28;20206;-70
2022/03/21 06:55:46;;;;;;;3.13;2.83;;;3.70;58.90;3.00;99731.00;;;;5100625;28;20236;-70
2022/03/21 06:58:16;;;;;;;4.67;4.00;;;3.70;58.70;3.00;99728.00;;;;5117176;28;20222;-70
2022/03/21 07:00:44;;;;;;;5.13;2.50;;;3.80;58.70;3.10;99741.00;;;;5116887;28;20228;-70
2022/03/21 07:03:13;;;;;;;3.53;3.23;;;3.80;58.70;3.30;99740.00;;;;5116994;28;20178;-71
2022/03/21 07:05:41;;;;;;;4.63;4.07;;;4.00;57.90;3.30;99729.00;;;;5117039;28;20237;-71
2022/03/21 07:08:11;;;;;;;2.53;2.43;;;4.10;57.60;3.40;99736.00;;;;5117094;28;20189;-70
2022/03/21 07:10:40;;;;;;;11.67;4.53;;;4.10;57.50;3.60;99732.00;;;;5116951;28;20640;-70
2022/03/21 07:13:10;;;;;;;8.00;3.20;;;4.20;57.90;3.70;99731.00;;;;5116795;28;20243;-70
2022/03/21 07:15:37;;;;;;;4.23;2.37;;;4.40;57.70;3.70;99740.00;;;;5116732;28;20236;-70
2022/03/21 07:18:05;;;;;;;3.50;2.20;;;4.40;56.50;3.80;99720.00;;;;5116732;28;20232;-70
2022/03/21 07:20:32;;;;;;;2.47;2.27;;;4.60;56.90;4.00;99737.00;;;;5116759;28;20699;-70
2022/03/21 07:23:00;;;;;;;3.43;3.10;;;4.70;56.70;4.20;99747.00;;;;5116681;28;20280;-71
2022/03/21 07:25:27;;;;;;;2.73;2.53;;;4.80;56.10;4.20;99746.00;;;;5116806;28;20270;-70
2022/03/21 07:27:54;;;;;;;4.43;2.13;;;4.90;56.70;4.30;99750.00;;;;5098629;28;20684;-70
2022/03/21 07:30:23;;;;;;;3.57;3.03;;;5.00;56.60;4.50;99739.00;;;;5116656;28;20215;-70
2022/03/21 07:32:49;;;;;;;3.57;1.83;;;5.20;56.30;4.70;99745.00;;;;5116478;28;20213;-70
2022/03/21 07:35:19;;;;;;;2.70;2.00;;;5.30;55.70;4.70;99751.00;;;;5116522;28;20264;-70
2022/03/21 07:37:50;;;;;;;5.07;2.73;;;5.40;55.20;4.90;99753.00;;;;5116462;28;20582;-71
2022/03/21 07:40:19;;;;;;;2.23;1.30;;;5.60;54.60;5.00;99758.00;;;;5098537;28;20262;-70
2022/03/21 07:42:48;;;;;;;2.13;2.03;;;5.70;54.20;5.10;99757.00;;;;5116459;28;20233;-69
2022/03/21 07:48:02;;;;;;;8.67;2.67;;;5.80;52.80;5.40;99762.00;;;;5115464;28;20399;-71
2022/03/21 07:50:30;;;;;;;1.53;1.43;;;6.00;52.90;5.50;99764.00;;;;5116407;28;20190;-69
2022/03/21 07:53:02;;;;;;;1.10;1.10;;;6.20;52.40;5.70;99768.00;;;;5115940;28;20307;-69
2022/03/21 07:55:31;;;;;;;2.13;2.03;;;6.30;52.00;5.80;99773.00;;;;5116322;28;20204;-70
2022/03/21 07:58:05;;;;;;;4.83;2.80;;;6.40;51.50;5.90;99767.00;;;;5116137;28;20505;-70
2022/03/21 08:00:32;;;;;;;1.77;1.67;;;6.60;51.20;6.20;99766.00;;;;5116066;28;20575;-70
2022/03/21 08:02:59;;;;;;;2.93;2.73;;;6.70;51.10;6.30;99771.00;;;;5115895;28;20644;-70
2022/03/21 08:05:28;;;;;;;4.07;2.63;;;7.00;50.00;6.50;99757.00;;;;5115987;28;20228;-70
2022/03/21 08:07:54;;;;;;;2.33;2.13;;;7.10;49.70;6.60;99758.00;;;;5115968;28;20200;-70
2022/03/21 08:10:24;;;;;;;3.20;2.03;;;7.30;49.70;6.70;99772.00;;;;5116118;28;20261;-70
2022/03/21 08:12:55;;;;;;;1.93;1.83;;;7.40;49.10;6.80;99768.00;;;;5115835;28;20342;-70
2022/03/21 08:15:22;;;;;;;2.87;2.20;;;7.50;48.30;7.10;99772.00;;;;5115913;28;20652;-70
2022/03/21 08:17:56;;;;;;;1.40;1.30;;;7.70;47.10;7.20;99773.00;;;;5115750;28;20205;-71
2022/03/21 08:20:33;;;;;;;1.27;1.27;;;7.80;46.30;7.30;99778.00;;;;5116049;28;20202;-70
2022/03/21 08:23:01;;;;;;;1.90;1.73;;;8.00;46.10;7.50;99780.00;;;;5115875;28;20197;-70
2022/03/21 08:25:28;;;;;;;2.20;2.10;;;8.10;45.30;7.60;99773.00;;;;5115752;28;20664;-71
2022/03/21 08:27:55;;;;;;;4.03;2.70;;;8.30;44.80;7.70;99769.00;;;;5115793;28;20201;-71
2022/03/21 08:30:24;;;;;;;1.73;1.63;;;8.30;44.30;7.90;99775.00;;;;5097714;28;20222;-70
2022/03/21 08:32:51;;;;;;;3.07;2.87;;;8.50;43.70;8.00;99770.00;;;;5115679;28;20222;-71
2022/03/21 08:35:21;;;;;;;2.20;2.10;;;8.60;43.50;8.10;99774.00;;;;5116595;28;20198;-71
2022/03/21 08:37:48;;;;;;;3.03;2.77;;;8.70;43.90;8.20;99772.00;;;;5116279;28;20236;-70
2022/03/21 08:40:16;;;;;;;1.97;1.87;;;8.90;43.60;8.40;99776.00;;;;5116617;28;20280;-70
2022/03/21 08:42:43;;;;;;;2.00;1.90;;;;;8.50;99765.00;;;;5116574;28;20190;-69
2022/03/21 08:45:12;;;;;;;1.97;1.77;;;9.10;41.40;8.50;99775.00;;;;5117747;28;20285;-70
2022/03/21 08:47:39;;;;;;;3.37;2.40;;;9.20;40.80;8.70;99767.00;;;;5116274;28;20629;-70
2022/03/21 08:50:08;;;;;;;2.60;2.33;;;9.30;38.40;8.70;99738.00;;;;5115498;28;20226;-70
2022/03/21 08:52:36;;;;;;;2.60;2.17;;;9.40;37.40;8.90;99736.00;;;;5116039;28;20222;-72
2022/03/21 08:55:05;;;;;;;1.93;1.83;;;9.50;37.90;9.20;99765.00;;;;5115268;28;20205;-69
2022/03/21 08:57:32;;;;;;;1.73;1.67;;;9.70;37.40;9.20;99766.00;;;;5119638;28;20631;-70
2022/03/21 08:59:59;;;;;;;4.70;2.73;;;9.80;36.80;9.40;99763.00;;;;5098003;28;20204;-70
2022/03/21 09:02:28;;;;;;;1.30;1.30;;;9.90;36.60;9.50;99767.00;;;;5115387;28;20214;-70
2022/03/21 09:04:55;;;;;;;3.03;2.73;;;10.10;36.20;9.50;99767.00;;;;5114643;28;20205;-70
2022/03/21 09:07:23;;;;;;;2.27;2.17;;;10.20;36.80;9.70;99769.00;;;;5115410;28;20495;-69
2022/03/21 09:09:50;;;;;;;2.10;2.00;;;10.30;36.10;9.70;99763.00;;;;5114767;28;20247;-70
2022/03/21 09:12:16;;;;;;;1.80;1.63;;;10.30;35.70;9.80;99765.00;;;;5114934;28;20218;-69
2022/03/21 09:14:43;;;;;;;4.43;2.40;;;10.40;35.30;9.90;99763.00;;;;5115071;28;20876;-71
2022/03/21 09:17:10;;;;;;;2.17;1.97;;;10.50;35.50;10.00;99762.00;;;;5097138;28;20209;-70
2022/03/21 09:19:37;;;;;;;2.17;2.07;;;10.60;36.40;10.00;99758.00;;;;5114946;28;20674;-69
2022/03/21 09:22:04;;;;;;;2.07;1.97;;;10.60;35.90;10.20;99754.00;;;;5097218;28;20320;-69
2022/03/21 09:24:32;;;;;;;1.43;1.40;;;10.80;36.00;10.30;99720.00;;;;5114800;28;20324;-69
2022/03/21 09:26:59;;;;;;;3.70;2.33;;;10.90;36.10;10.50;99754.00;;;;5096746;28;20210;-69
2022/03/21 09:29:28;;;;;;;3.07;2.77;;;11.00;35.80;10.60;99757.00;;;;5114769;28;20657;-69
2022/03/21 09:31:56;;;;;;;3.33;3.03;;;11.10;35.80;10.70;99760.00;;;;5114582;28;20214;-70
2022/03/21 09:34:23;;;;;;;4.20;2.73;;;11.30;35.30;10.90;99761.00;;;;5114635;28;20229;-69
2022/03/21 09:36:50;;;;;;;3.27;2.87;;;11.40;34.50;11.00;99757.00;;;;5114652;28;20190;-69
2022/03/21 09:39:17;;;;;;;3.23;2.57;;;11.60;34.20;11.10;99737.00;;;;5096693;28;20202;-70
2022/03/21 09:41:47;;;;;;;2.00;1.83;;;11.70;34.20;11.30;99759.00;;;;5114523;28;20664;-69
2022/03/21 09:44:14;;;;;;;3.83;2.60;;;11.80;33.80;11.40;99753.00;;;;5114480;28;20581;-69
2022/03/21 09:46:43;;;;;;;2.43;2.23;;;12.00;33.20;11.30;99750.00;;;;5114361;28;20225;-69
2022/03/21 09:49:15;;;;;;;2.93;2.73;;;12.00;33.30;11.50;99755.00;;;;5114516;28;20587;-70
2022/03/21 09:51:42;;;;;;;3.30;3.00;;;12.00;33.80;11.60;99752.00;;;;5096444;28;20312;-70
2022/03/21 09:54:10;;;;;;;1.00;1.00;;;12.20;34.40;11.80;99741.00;;;;5114381;28;20433;-69
2022/03/21 09:56:36;;;;;;;2.80;2.60;;;12.30;33.80;11.90;99749.00;;;;5114344;28;20190;-70
2022/03/21 09:59:04;;;;;;;2.90;2.70;;;12.50;34.00;12.30;99750.00;;;;5096602;28;20220;-70
2022/03/21 10:01:33;;;;;;;2.20;2.10;;;12.70;32.90;12.30;99753.00;;;;5114321;28;20201;-68
2022/03/21 10:04:01;;;;;;;3.13;2.37;;;12.80;32.60;12.30;99745.00;;;;5114204;28;20194;-70
2022/03/21 10:06:31;;;;;;;1.73;1.63;;;12.90;32.70;12.70;99717.00;;;;5113999;28;20231;-68
2022/03/21 10:09:10;;;;;;;2.20;2.10;;;13.10;32.10;12.70;99744.00;;;;5114224;28;20294;-70
2022/03/21 10:11:39;;;;;;;2.17;1.97;;;13.20;31.70;12.90;99742.00;;;;5114013;28;20225;-70
2022/03/21 10:14:28;;;;;;;2.33;2.13;;;13.40;31.40;13.00;99741.00;;;;5114056;28;20277;-70
2022/03/21 10:16:57;;;;;;;3.77;2.53;;;13.50;31.70;13.10;99737.00;;;;5113131;28;20534;-70
2022/03/21 10:19:25;;;;;;;3.60;2.57;;;13.60;31.40;13.20;99748.00;;;;5114021;28;20210;-69
2022/03/21 10:22:08;;;;;;;2.93;2.37;;;13.70;31.40;13.30;99743.00;;;;5114067;28;20252;-70
2022/03/21 10:24:41;;;;;;;14.00;3.07;;;13.90;32.20;13.40;99743.00;;;;5113920;28;20273;-70
2022/03/21 10:27:28;;;;;;;4.60;4.20;;;13.90;31.60;13.50;99746.00;;;;5114036;28;20209;-70
2022/03/21 10:30:01;;;;;;;2.37;2.10;;;14.00;30.80;13.50;99744.00;;;;5113994;28;20189;-71
2022/03/21 10:32:35;;;;;;;11.30;2.63;;;14.10;30.40;13.80;99740.00;;;;5113879;28;20214;-69
2022/03/21 10:35:04;;;;;;;2.77;2.57;;;14.20;30.00;13.80;99745.00;;;;5113884;28;20209;-70
2022/03/21 10:37:49;;;;;;;3.27;2.97;;;14.30;29.80;14.00;99737.00;;;;5113636;28;20321;-69
2022/03/21 10:40:23;;;;;;;1.53;1.43;;;14.50;29.50;14.10;99739.00;;;;5095896;28;20607;-71
2022/03/21 10:42:56;;;;;;;1.43;1.33;;;14.60;29.00;14.10;99729.00;;;;5113781;28;20190;-70
2022/03/21 10:45:28;;;;;;;1.43;1.37;;;14.60;29.00;14.30;99737.00;;;;5113910;28;20202;-70
2022/03/21 10:47:55;;;;;;;2.30;2.20;;;14.80;29.40;14.40;99735.00;;;;5113741;28;20198;-70
2022/03/21 10:50:34;;;;;;;2.90;2.60;;;14.90;29.80;14.40;99736.00;;;;5113560;28;20274;-70
2022/03/21 10:53:07;;;;;;;2.67;2.47;;;14.90;28.00;14.40;99741.00;;;;5113485;28;20304;-70
2022/03/21 10:55:34;;;;;;;2.17;2.00;;;14.90;28.40;14.60;99742.00;;;;5113541;28;20198;-70
2022/03/21 10:58:01;;;;;;;2.77;2.57;;;15.00;27.70;14.70;99741.00;;;;5113570;28;20198;-70
2022/03/21 11:00:29;;;;;;;3.73;3.27;;;15.20;27.70;14.90;99723.00;;;;5113351;28;20217;-70
2022/03/21 11:03:00;;;;;;;4.17;2.50;;;15.40;28.10;15.20;99733.00;;;;5113269;28;20226;-70
2022/03/21 11:05:30;;;;;;;1.70;1.60;;;15.60;27.60;15.70;99730.00;;;;5113490;28;20202;-69
2022/03/21 11:07:57;;;;;;;2.43;2.27;;;15.90;26.90;15.90;99727.00;;;;5095624;28;20228;-71
2022/03/21 11:10:28;;;;;;;3.10;2.70;;;16.20;26.50;16.20;99724.00;;;;5095624;28;20214;-70
2022/03/21 11:12:57;;;;;;;2.83;2.57;;;16.50;25.40;16.10;99725.00;;;;5095511;28;20214;-70
2022/03/21 11:15:26;;;;;;;2.00;1.90;;;16.60;25.30;16.30;99727.00;;;;5113205;28;20640;-70
2022/03/21 11:17:55;;;;;;;2.57;2.37;;;16.70;25.10;16.40;99719.00;;;;5113303;28;20621;-69
2022/03/21 11:20:22;;;;;;;1.97;1.87;;;16.80;24.70;16.70;99707.00;;;;5113316;28;20567;-70
2022/03/21 11:22:48;;;;;;;1.57;1.47;;;17.00;24.90;16.70;99708.00;;;;5095584;28;20222;-73
2022/03/21 11:25:17;;;;;;;4.80;3.90;;;17.20;24.60;16.90;99715.00;;;;5113275;28;20186;-71
2022/03/21 11:28:31;;;;;;;3.00;2.73;;;17.20;25.00;16.80;99713.00;;;;5113186;28;20220;-70
2022/03/21 11:31:46;;;;;;;3.50;3.20;;;17.20;23.40;17.00;99711.00;;;;5096157;28;20649;-72